Time;durP1;ratioP1;P1;durP2;ratioP2;P2;SDS_P1;SDS_P2;PMS_P1;PMS_P2;Temp;Humidity;BMP_temperature;BMP_pressure;BME280_temperature;BME280_humidity;BME280_pressure;Samples;Min_cycle;Max_cycle;Signal;HPM_P1;HPM_P2
2023/06/21 00:00:21;;;;;;;18.50;10.20;;;;;;;20.92;67.50;100363.80;123875;1102;104316;-78
2023/06/21 00:03:13;;;;;;;17.52;9.75;;;;;;;20.81;66.86;100363.89;123850;1102;104370;-78
2023/06/21 00:05:45;;;;;;;17.57;9.00;;;;;;;20.74;67.17;100370.19;123907;1101;104328;-78
2023/06/21 00:08:16;;;;;;;17.73;9.57;;;;;;;20.64;67.64;100377.35;123910;1102;104328;-78
2023/06/21 00:10:47;;;;;;;16.33;9.70;;;;;;;20.55;68.06;100380.05;124021;1102;104191;-78
2023/06/21 00:13:18;;;;;;;17.77;9.80;;;;;;;20.48;67.70;100376.55;123847;1102;104272;-79
2023/06/21 00:15:50;;;;;;;21.70;10.65;;;;;;;20.46;68.44;100378.36;123920;1102;104633;-78
2023/06/21 00:18:22;;;;;;;18.27;10.27;;;;;;;20.43;68.74;100380.17;123873;1102;104271;-79
2023/06/21 00:20:56;;;;;;;18.57;9.90;;;;;;;20.40;68.81;100380.19;123740;1101;104241;-78
2023/06/21 00:23:27;;;;;;;20.43;10.07;;;;;;;20.42;68.42;100376.59;123794;1102;104447;-79
2023/06/21 00:25:59;;;;;;;19.00;10.17;;;;;;;20.42;69.18;100381.05;124174;1099;104357;-77
2023/06/21 00:28:30;;;;;;;17.53;9.77;;;;;;;20.38;69.44;100376.63;123738;1100;104488;-76
2023/06/21 00:31:01;;;;;;;20.37;9.93;;;;;;;20.28;68.99;100368.69;123818;1099;104204;-79
2023/06/21 00:33:32;;;;;;;19.90;9.80;;;;;;;20.25;69.76;100363.38;123896;1099;104344;-78
2023/06/21 00:36:05;;;;;;;17.80;10.20;;;;;;;20.24;68.70;100361.63;123980;1099;104245;-79
2023/06/21 00:38:37;;;;;;;18.47;10.03;;;;;;;20.20;69.22;100354.55;123858;1100;104373;-79
2023/06/21 00:41:09;;;;;;;19.33;10.10;;;;;;;20.21;70.02;100350.99;123896;1099;104226;-78
2023/06/21 00:43:40;;;;;;;19.23;9.57;;;;;;;20.18;69.78;100345.69;124069;1099;104743;-77
2023/06/21 00:46:11;;;;;;;18.63;9.80;;;;;;;20.17;70.06;100354.56;123905;1099;104699;-79
2023/06/21 00:48:43;;;;;;;17.00;10.00;;;;;;;20.11;69.80;100359.92;124283;1099;104304;-79
2023/06/21 00:51:15;;;;;;;18.90;9.85;;;;;;;20.03;70.79;100367.08;123958;1102;104294;-78
2023/06/21 00:53:48;;;;;;;16.40;9.53;;;;;;;19.95;70.89;100360.91;124000;1100;104401;-77
2023/06/21 00:56:19;;;;;;;17.93;9.90;;;;;;;19.86;71.28;100353.84;123910;1099;104393;-78
2023/06/21 00:58:50;;;;;;;18.93;10.03;;;;;;;19.83;71.35;100353.86;124137;1099;104364;-78
2023/06/21 01:01:21;;;;;;;18.65;9.95;;;;;;;19.79;70.75;100345.02;123901;1099;104354;-79
2023/06/21 01:03:55;;;;;;;17.05;9.68;;;;;;;19.78;71.66;100355.67;124310;1099;104181;-78
2023/06/21 01:06:34;;;;;;;19.50;10.73;;;;;;;19.77;71.15;100360.09;124201;1099;104357;-77
2023/06/21 01:09:27;;;;;;;18.53;9.90;;;;;;;19.74;71.67;100354.73;124191;1099;104345;-79
2023/06/21 01:12:03;;;;;;;19.10;9.93;;;;;;;19.73;71.64;100356.52;124187;1099;104239;-78
2023/06/21 01:14:43;;;;;;;18.93;10.07;;;;;;;19.73;71.67;100353.86;124209;1099;104217;-78
2023/06/21 01:17:16;;;;;;;16.10;9.47;;;;;;;19.72;72.28;100351.20;123952;1099;104280;-78
2023/06/21 01:19:54;;;;;;;17.90;9.97;;;;;;;19.71;72.44;100352.09;124261;1099;104233;-77
2023/06/21 01:22:40;;;;;;;17.67;9.40;;;;;;;19.69;72.45;100357.42;124330;1099;104344;-76
2023/06/21 01:25:23;;;;;;;18.20;9.77;;;;;;;19.68;72.06;100363.66;124268;1099;104287;-78
2023/06/21 01:28:12;;;;;;;17.10;9.67;;;;;;;19.66;72.66;100368.08;124166;1099;104281;-77
2023/06/21 01:30:45;;;;;;;19.83;10.17;;;;;;;19.64;73.25;100364.55;124438;1099;104291;-76
2023/06/21 01:33:18;;;;;;;18.12;9.50;;;;;;;19.61;73.08;100358.36;124121;1099;104243;-77
2023/06/21 01:35:53;;;;;;;18.98;9.88;;;;;;;19.58;73.39;100362.78;124213;1099;104302;-78
2023/06/21 01:38:26;;;;;;;18.93;9.90;;;;;;;19.56;72.97;100361.03;124089;1099;104280;-77
2023/06/21 01:40:57;;;;;;;17.05;9.90;;;;;;;19.57;73.37;100355.71;123853;1099;104331;-78
2023/06/21 01:43:29;;;;;;;18.73;10.20;;;;;;;19.56;73.71;100351.27;124061;1099;104375;-79
2023/06/21 01:46:02;;;;;;;18.33;10.13;;;;;;;19.57;73.58;100354.80;123952;1099;104405;-79
2023/06/21 01:48:35;;;;;;;18.90;9.60;;;;;;;19.56;72.72;100351.27;123898;1099;104284;-79
2023/06/21 01:51:07;;;;;;;18.00;9.50;;;;;;;19.55;72.80;100356.59;123970;1099;104268;-79
2023/06/21 01:53:40;;;;;;;20.05;10.25;;;;;;;19.54;73.53;100368.12;124045;1099;104249;-79
2023/06/21 01:56:16;;;;;;;19.03;9.53;;;;;;;19.50;73.70;100372.58;124234;1099;104341;-79
2023/06/21 01:58:50;;;;;;;16.40;9.77;;;;;;;19.45;74.20;100378.82;123909;1099;104354;-78
2023/06/21 02:01:22;;;;;;;17.60;9.70;;;;;;;19.39;74.10;100385.03;123858;1099;104207;-79
2023/06/21 02:03:59;;;;;;;17.63;10.27;;;;;;;19.36;74.72;100377.05;124221;1099;104255;-78
2023/06/21 02:06:33;;;;;;;18.73;10.30;;;;;;;19.36;74.79;100383.25;124044;1099;104294;-80
2023/06/21 02:09:05;;;;;;;;;;;;;;;19.34;74.08;100387.70;124465;1098;104316;-79
2023/06/21 02:11:37;;;;;;;19.37;10.13;;;;;;;19.31;74.19;100387.70;124275;1098;104322;-79
2023/06/21 02:14:09;;;;;;;19.47;10.47;;;;;;;19.27;74.50;100395.70;124322;1099;104268;-79
2023/06/21 02:16:41;;;;;;;22.47;10.63;;;;;;;19.22;75.35;100399.23;123875;1099;104261;-78
2023/06/21 02:19:12;;;;;;;20.67;11.10;;;;;;;19.19;75.80;100414.32;124112;1099;104177;-79
2023/06/21 02:21:45;;;;;;;19.10;10.87;;;;;;;19.15;75.37;100412.54;123858;1100;104313;-79
2023/06/21 02:24:19;;;;;;;18.30;10.17;;;;;;;19.13;75.65;100403.69;123925;1098;104434;-77
2023/06/21 02:26:50;;;;;;;20.67;10.90;;;;;;;19.14;76.05;100394.83;124100;1099;104273;-78
2023/06/21 02:29:21;;;;;;;18.20;10.47;;;;;;;19.16;76.04;100396.58;123859;1099;104296;-79
2023/06/21 02:31:52;;;;;;;22.23;10.47;;;;;;;19.19;75.73;100401.02;124060;1099;104265;-77
2023/06/21 02:34:23;;;;;;;17.47;10.33;;;;;;;19.21;75.54;100384.19;123826;1099;104194;-77
2023/06/21 02:36:55;;;;;;;19.70;10.37;;;;;;;19.26;76.39;100393.91;124047;1099;104415;-78
2023/06/21 02:39:26;;;;;;;19.97;10.87;;;;;;;19.31;76.18;100382.38;123939;1099;104717;-77
2023/06/21 02:41:58;;;;;;;18.47;10.37;;;;;;;19.37;76.17;100389.48;123799;1099;104367;-77
2023/06/21 02:44:29;;;;;;;18.83;9.43;;;;;;;19.39;76.15;100400.99;123798;1099;104339;-78
2023/06/21 02:47:01;;;;;;;18.40;9.53;;;;;;;19.40;76.12;100402.78;123869;1099;104297;-77
2023/06/21 02:49:36;;;;;;;17.93;9.80;;;;;;;19.38;76.12;100399.21;123812;1099;107094;-78
2023/06/21 02:52:09;;;;;;;17.00;9.70;;;;;;;19.40;75.65;100408.09;123928;1099;104616;-78
2023/06/21 02:54:40;;;;;;;17.00;9.93;;;;;;;19.40;76.01;100403.66;124057;1099;104268;-77
2023/06/21 02:57:11;;;;;;;20.03;10.27;;;;;;;19.38;76.35;100405.44;124011;1099;104271;-77
2023/06/21 02:59:43;;;;;;;18.73;10.57;;;;;;;19.38;76.71;100410.77;124269;1099;104179;-78
2023/06/21 03:02:14;;;;;;;18.10;9.90;;;;;;;19.35;75.95;100413.42;124304;1099;104322;-78
2023/06/21 03:04:45;;;;;;;19.07;10.57;;;;;;;19.34;76.74;100411.64;124093;1099;104265;-78
2023/06/21 03:07:17;;;;;;;19.30;10.53;;;;;;;19.32;76.61;100420.50;124085;1099;104262;-79
2023/06/21 03:09:48;;;;;;;19.10;10.27;;;;;;;19.31;76.86;100413.44;124051;1099;104194;-80
2023/06/21 03:12:19;;;;;;;18.93;10.13;;;;;;;19.33;76.35;100414.30;124046;1099;104316;-81
2023/06/21 03:14:51;;;;;;;18.23;10.33;;;;;;;19.35;76.99;100421.41;124060;1099;104339;-78
2023/06/21 03:17:22;;;;;;;19.63;10.40;;;;;;;19.34;76.48;100418.75;123748;1099;104280;-79
2023/06/21 03:19:53;;;;;;;17.83;10.27;;;;;;;19.33;77.45;100428.48;123761;1099;104386;-77
2023/06/21 03:22:25;;;;;;;18.97;10.67;;;;;;;19.33;77.77;100428.48;123971;1099;104351;-78
2023/06/21 03:24:57;;;;;;;18.60;10.30;;;;;;;19.33;77.20;100430.27;124135;1099;104313;-78
2023/06/21 03:27:28;;;;;;;17.97;10.13;;;;;;;19.32;77.73;100426.73;124206;1099;104386;-78
2023/06/21 03:30:00;;;;;;;18.93;9.87;;;;;;;19.34;77.30;100419.63;123795;1099;104287;-78
2023/06/21 03:32:31;;;;;;;19.77;10.80;;;;;;;19.35;77.71;100424.07;123882;1099;104472;-78
2023/06/21 03:35:03;;;;;;;18.90;10.40;;;;;;;19.40;78.04;100421.41;123937;1099;104306;-77
2023/06/21 03:37:34;;;;;;;18.87;10.13;;;;;;;19.44;77.95;100417.83;123908;1099;104320;-78
2023/06/21 03:40:09;;;;;;;18.20;10.20;;;;;;;19.48;77.80;100427.59;123657;1099;104424;-77
2023/06/21 03:42:42;;;;;;;17.10;9.93;;;;;;;19.50;78.52;100425.80;124001;1099;104306;-77
2023/06/21 03:45:13;;;;;;;19.40;10.67;;;;;;;19.52;78.53;100428.45;123839;1099;104730;-78
2023/06/21 03:47:46;;;;;;;17.95;10.60;;;;;;;19.53;79.25;100430.23;123681;1100;104262;-78
2023/06/21 03:50:17;;;;;;;16.80;10.37;;;;;;;19.55;78.62;100428.45;124137;1099;104364;-77
2023/06/21 03:52:49;;;;;;;18.90;10.47;;;;;;;19.56;80.10;100435.55;123828;1099;104304;-77
2023/06/21 03:55:21;;;;;;;19.67;10.73;;;;;;;19.59;79.75;100430.23;123860;1099;104322;-79
2023/06/21 03:57:53;;;;;;;19.10;10.63;;;;;;;19.64;79.64;100432.88;123900;1099;104361;-78
2023/06/21 04:00:24;;;;;;;17.23;9.77;;;;;;;19.69;79.45;100423.97;123792;1099;104271;-77
2023/06/21 04:02:56;;;;;;;20.67;10.47;;;;;;;19.74;79.60;100430.19;124100;1099;104316;-79
2023/06/21 04:05:27;;;;;;;23.03;11.17;;;;;;;19.80;79.41;100426.63;123619;1099;104341;-77
2023/06/21 04:07:59;;;;;;;20.23;10.47;;;;;;;19.84;79.99;100431.06;124012;1099;104271;-77
2023/06/21 04:10:30;;;;;;;18.20;10.70;;;;;;;19.89;80.85;100439.91;124111;1099;104399;-78
2023/06/21 04:13:02;;;;;;;19.00;10.83;;;;;;;19.90;79.96;100432.83;124098;1099;104197;-78
2023/06/21 04:15:33;;;;;;;21.03;10.13;;;;;;;19.91;79.75;100426.59;123921;1099;104255;-80
2023/06/21 04:18:05;;;;;;;18.47;10.23;;;;;;;19.91;80.10;100443.48;124195;1098;104379;-79
2023/06/21 04:20:36;;;;;;;18.67;10.33;;;;;;;19.90;80.54;100439.03;124080;1099;104354;-79
2023/06/21 04:23:09;;;;;;;19.57;10.57;;;;;;;19.96;81.03;100446.13;124353;1099;104255;-78
2023/06/21 04:25:41;;;;;;;17.13;10.00;;;;;;;20.04;80.78;100441.64;124020;1099;104329;-78
2023/06/21 04:28:12;;;;;;;17.23;10.40;;;;;;;20.12;80.47;100446.94;123993;1099;104689;-79
2023/06/21 04:30:43;;;;;;;18.80;10.30;;;;;;;20.21;80.68;100445.99;124018;1099;104348;-78
2023/06/21 04:33:15;;;;;;;18.23;10.40;;;;;;;20.30;80.83;100456.61;123882;1099;104253;-77
2023/06/21 04:35:46;;;;;;;16.63;10.10;;;;;;;20.33;81.02;100459.26;124119;1099;104185;-78
2023/06/21 04:38:18;;;;;;;19.40;9.97;;;;;;;20.37;80.94;100460.15;124338;1099;104338;-80
2023/06/21 04:40:51;;;;;;;19.43;10.40;;;;;;;20.38;80.39;100460.14;124301;1099;104162;-78
2023/06/21 04:43:24;;;;;;;;;;;;;;;20.46;81.22;100457.44;124391;1099;104620;-79
2023/06/21 04:45:58;;;;;;;16.97;9.63;;;;;;;20.55;80.11;100460.02;124185;1099;104248;-79
2023/06/21 04:48:29;;;;;;;17.35;10.43;;;;;;;20.60;80.68;100459.99;124381;1099;104236;-81
2023/06/21 04:51:00;;;;;;;17.87;9.83;;;;;;;20.64;80.81;100461.75;124454;1099;104233;-80
2023/06/21 04:53:32;;;;;;;17.37;9.80;;;;;;;20.64;80.23;100460.00;124589;1099;104238;-79
2023/06/21 04:56:03;;;;;;;18.43;9.53;;;;;;;20.68;80.42;100465.31;123944;1099;104323;-78
2023/06/21 04:58:38;;;;;;;17.65;9.85;;;;;;;20.69;80.07;100462.63;124665;1099;104242;-82
2023/06/21 05:01:10;;;;;;;18.93;10.47;;;;;;;20.73;80.29;100466.19;124905;1099;104245;-81
2023/06/21 05:03:41;;;;;;;19.40;9.67;;;;;;;20.78;80.17;100469.70;124803;1098;104241;-80
2023/06/21 05:06:16;;;;;;;17.00;9.20;;;;;;;20.85;80.31;100468.77;124949;1098;104166;-82
2023/06/21 05:08:47;;;;;;;16.30;9.67;;;;;;;20.95;79.57;100472.25;125339;1099;104163;-81
2023/06/21 05:12:07;;;;;;;19.67;9.57;;;;;;;21.06;80.45;100474.84;125015;1099;104157;-83
2023/06/21 05:14:39;;;;;;;16.53;8.97;;;;;;;21.14;79.65;100473.86;125589;1099;111644;-84
2023/06/21 05:17:13;;;;;;;18.50;9.23;;;;;;;21.19;79.40;100472.06;124938;1099;102019;-84
2023/06/21 05:19:44;;;;;;;14.40;8.50;;;;;;;21.27;79.23;100476.42;126104;1098;102964;-83
2023/06/21 05:22:17;;;;;;;12.83;7.97;;;;;;;21.33;79.25;100473.70;124856;1099;104331;-82
2023/06/21 05:24:49;;;;;;;14.63;7.93;;;;;;;21.38;78.29;100479.91;125670;1099;104238;-82
2023/06/21 05:27:21;;;;;;;16.20;8.20;;;;;;;21.44;77.66;100484.28;125183;1099;103241;-82
2023/06/21 05:29:54;;;;;;;13.83;7.93;;;;;;;21.48;77.52;100484.23;124547;1098;104214;-81
2023/06/21 05:32:26;;;;;;;15.75;7.90;;;;;;;21.54;77.23;100486.02;125679;1099;103136;-80
2023/06/21 05:34:58;;;;;;;12.90;7.77;;;;;;;21.60;78.13;100490.38;124882;1099;104267;-82
2023/06/21 05:37:30;;;;;;;13.27;7.67;;;;;;;21.62;77.08;100492.15;125089;1099;104191;-82
2023/06/21 05:40:02;;;;;;;14.73;7.60;;;;;;;21.61;76.88;100486.83;124894;1098;104377;-76
2023/06/21 05:42:35;;;;;;;11.68;7.42;;;;;;;21.56;76.85;100477.98;125199;1099;104194;-79
2023/06/21 05:45:11;;;;;;;15.67;8.07;;;;;;;21.62;76.87;100480.59;124758;1099;103687;-81
2023/06/21 05:47:45;;;;;;;14.43;7.67;;;;;;;21.70;76.55;100486.73;124409;1099;102554;-79
2023/06/21 05:50:18;;;;;;;13.53;7.23;;;;;;;21.70;75.34;100489.41;124811;1099;104222;-81
2023/06/21 05:52:52;;;;;;;12.67;7.13;;;;;;;21.69;75.75;100496.54;124780;1099;104261;-78
2023/06/21 05:55:24;;;;;;;12.17;7.13;;;;;;;21.71;75.91;100499.20;125105;1099;104341;-77
2023/06/21 05:57:58;;;;;;;12.33;7.17;;;;;;;21.75;76.12;100495.58;124889;1099;104367;-79
2023/06/21 06:00:30;;;;;;;14.10;7.50;;;;;;;21.83;75.80;100488.39;124997;1099;104232;-79
2023/06/21 06:03:02;;;;;;;12.90;7.40;;;;;;;21.88;74.74;100491.88;125147;1098;104328;-80
2023/06/21 06:05:35;;;;;;;12.70;7.20;;;;;;;21.89;75.38;100490.08;124710;1099;104169;-77
2023/06/21 06:08:08;;;;;;;10.50;6.83;;;;;;;21.93;74.52;100501.64;125065;1099;104197;-76
2023/06/21 06:10:39;;;;;;;14.73;6.70;;;;;;;21.89;74.08;100503.44;124894;1099;104316;-76
2023/06/21 06:13:11;;;;;;;10.70;6.67;;;;;;;21.90;74.34;100505.22;124957;1098;104213;-79
2023/06/21 06:15:43;;;;;;;12.30;6.30;;;;;;;21.95;73.40;100526.55;124935;1099;104235;-78
2023/06/21 06:18:23;;;;;;;11.73;6.70;;;;;;;21.99;73.74;100509.59;125330;1099;103483;-82
2023/06/21 06:20:55;;;;;;;10.17;6.17;;;;;;;22.00;73.25;100520.26;125216;1098;104165;-78
2023/06/21 06:23:28;;;;;;;11.17;6.40;;;;;;;22.06;73.41;100508.59;125036;1099;104226;-73
2023/06/21 06:26:08;;;;;;;8.70;6.37;;;;;;;22.15;73.50;100511.16;125039;1099;102847;-80
2023/06/21 06:28:44;;;;;;;11.97;6.37;;;;;;;22.28;72.53;100513.69;124664;1099;104354;-78
2023/06/21 06:31:22;;;;;;;10.15;6.20;;;;;;;22.41;72.21;100510.00;124309;1100;104235;-77
2023/06/21 06:33:55;;;;;;;12.27;6.30;;;;;;;22.59;72.16;100511.53;126244;1098;103004;-80
2023/06/21 06:36:27;;;;;;;12.07;6.40;;;;;;;22.77;72.12;100508.60;126913;1098;103712;-80
2023/06/21 06:39:00;;;;;;;10.17;5.93;;;;;;;22.96;71.69;100502.98;125684;1099;104310;-77
2023/06/21 06:41:32;;;;;;;11.40;5.97;;;;;;;23.11;70.79;100512.61;124851;1099;104264;-75
2023/06/21 06:44:08;;;;;;;9.03;6.00;;;;;;;23.23;69.44;100514.19;124830;1099;104246;-81
2023/06/21 06:46:40;;;;;;;9.10;5.90;;;;;;;23.36;70.46;100498.79;124526;1099;104294;-75
2023/06/21 06:49:11;;;;;;;11.80;6.33;;;;;;;23.45;68.78;100512.02;124341;1102;104605;-78
2023/06/21 06:51:45;;;;;;;11.50;5.87;;;;;;;23.49;68.54;100509.27;124563;1102;104162;-77
2023/06/21 06:54:17;;;;;;;9.20;6.00;;;;;;;23.54;68.27;100508.31;125230;1099;104270;-84
2023/06/21 06:56:50;;;;;;;8.50;5.50;;;;;;;23.60;67.01;100511.75;124680;1099;104175;-77
2023/06/21 06:59:21;;;;;;;12.77;5.90;;;;;;;23.66;66.45;100516.13;124492;1099;104227;-79
2023/06/21 07:01:55;;;;;;;10.60;5.90;;;;;;;23.80;66.87;100515.88;124670;1099;104293;-80
2023/06/21 07:04:28;;;;;;;11.57;5.90;;;;;;;23.95;66.07;100512.95;124910;1099;104313;-78
2023/06/21 07:07:01;;;;;;;8.70;5.80;;;;;;;24.09;64.32;100528.76;124944;1099;104265;-75
2023/06/21 07:09:34;;;;;;;8.25;5.12;;;;;;;24.18;63.97;100528.58;125001;1098;104347;-79
2023/06/21 07:12:11;;;;;;;10.65;6.40;;;;;;;24.39;64.57;100526.36;124514;1099;104312;-81
2023/06/21 07:14:43;;;;;;;9.37;5.70;;;;;;;24.60;64.17;100538.45;124496;1100;104345;-81
2023/06/21 07:17:16;;;;;;;11.40;5.97;;;;;;;24.75;63.40;100522.01;124422;1099;102823;-80
2023/06/21 07:19:53;;;;;;;9.47;6.23;;;;;;;24.97;63.45;100532.25;125088;1099;102531;-83
2023/06/21 07:22:25;;;;;;;13.20;6.50;;;;;;;24.99;61.67;100543.83;124707;1099;104091;-77
2023/06/21 07:24:57;;;;;;;12.07;6.17;;;;;;;24.75;61.75;100543.48;125084;1099;104245;-79
2023/06/21 07:27:32;;;;;;;12.17;6.03;;;;;;;24.62;62.32;100536.63;124531;1099;103717;-76
2023/06/21 07:30:16;;;;;;;11.43;6.27;;;;;;;24.60;61.82;100549.17;124525;1099;102411;-80
2023/06/21 07:33:06;;;;;;;10.10;6.20;;;;;;;24.72;61.97;100543.55;124712;1099;104283;-79
2023/06/21 07:35:45;;;;;;;10.50;6.30;;;;;;;24.90;61.15;100541.36;124815;1099;102197;-76
2023/06/21 07:38:17;;;;;;;8.60;5.80;;;;;;;25.03;61.68;100536.61;124893;1099;104326;-74
2023/06/21 07:40:51;;;;;;;9.70;6.30;;;;;;;25.26;61.28;100549.48;124788;1099;104328;-78
2023/06/21 07:43:23;;;;;;;11.13;6.47;;;;;;;25.48;60.97;100552.55;124808;1099;104211;-76
2023/06/21 07:45:57;;;;;;;9.93;6.80;;;;;;;25.47;59.79;100551.64;124917;1099;104173;-77
2023/06/21 07:48:29;;;;;;;12.07;6.60;;;;;;;25.52;59.66;100551.53;124696;1099;104222;-79
2023/06/21 07:51:02;;;;;;;10.05;6.20;;;;;;;25.40;58.23;100560.80;124617;1099;103446;-76
2023/06/21 07:53:34;;;;;;;8.87;6.20;;;;;;;25.42;58.52;100556.26;124132;1099;104238;-77
2023/06/21 07:56:05;;;;;;;10.63;6.30;;;;;;;25.67;58.46;100544.02;124594;1099;104239;-72
2023/06/21 07:58:39;;;;;;;11.13;6.50;;;;;;;25.78;57.91;100548.17;124948;1099;104153;-73
2023/06/21 08:01:16;;;;;;;11.27;6.50;;;;;;;25.74;57.90;100551.88;124889;1099;104254;-78
2023/06/21 08:03:55;;;;;;;9.93;6.53;;;;;;;25.76;56.54;100552.71;124699;1099;104258;-75
2023/06/21 08:06:39;;;;;;;10.10;6.20;;;;;;;25.81;56.77;100542.72;124971;1099;104175;-76
2023/06/21 08:09:12;;;;;;;10.30;6.43;;;;;;;25.98;56.89;100541.42;124892;1099;107720;-79
2023/06/21 08:11:49;;;;;;;12.93;6.90;;;;;;;26.30;55.77;100539.61;124885;1099;104265;-75
2023/06/21 08:14:32;;;;;;;8.97;6.40;;;;;;;26.51;55.13;100548.87;125033;1098;103127;-76
2023/06/21 08:17:03;;;;;;;11.30;6.50;;;;;;;26.67;55.33;100541.25;124795;1099;104268;-78
2023/06/21 08:19:34;;;;;;;11.70;6.90;;;;;;;26.91;54.91;100547.67;124942;1098;104148;-76
2023/06/21 08:22:06;;;;;;;14.70;6.93;;;;;;;27.17;53.68;100549.53;125095;1098;104201;-77
2023/06/21 08:24:38;;;;;;;11.15;6.90;;;;;;;27.49;53.34;100546.73;124947;1099;102814;-79
2023/06/21 08:27:14;;;;;;;10.13;6.90;;;;;;;27.65;53.51;100542.59;124752;1099;102736;-75
2023/06/21 08:29:47;;;;;;;10.77;6.60;;;;;;;27.92;52.90;100538.03;124775;1099;104264;-78
2023/06/21 08:32:19;;;;;;;10.03;6.73;;;;;;;28.01;52.10;100546.78;124950;1099;102091;-78
2023/06/21 08:34:52;;;;;;;10.78;6.92;;;;;;;28.08;51.85;100537.52;124861;1099;102367;-76
2023/06/21 08:37:28;;;;;;;11.33;6.95;;;;;;;28.26;50.81;100536.84;124321;1099;104294;-77
2023/06/21 08:40:00;;;;;;;12.55;6.90;;;;;;;28.28;50.37;100542.17;125004;1099;110358;-80
2023/06/21 08:42:33;;;;;;;11.33;6.47;;;;;;;28.12;49.38;100544.56;125135;1099;103520;-78
2023/06/21 08:45:08;;;;;;;9.63;6.70;;;;;;;27.98;49.38;100545.06;124951;1098;102769;-78
2023/06/21 08:47:42;;;;;;;12.00;6.30;;;;;;;27.76;48.95;100540.40;125057;1098;104354;-78
2023/06/21 08:50:19;;;;;;;12.33;6.90;;;;;;;27.54;49.47;100539.40;125100;1099;104162;-80
2023/06/21 08:52:53;;;;;;;10.30;6.83;;;;;;;27.42;49.55;100546.07;124560;1102;103357;-76
2023/06/21 08:55:26;;;;;;;11.73;7.10;;;;;;;27.25;49.55;100539.41;124590;1102;103354;-75
2023/06/21 08:58:06;;;;;;;12.33;6.73;;;;;;;27.19;49.27;100536.02;124945;1099;102521;-75
2023/06/21 09:00:45;;;;;;;14.60;7.07;;;;;;;27.06;49.46;100540.93;125233;1099;108469;-79
2023/06/21 09:03:26;;;;;;;10.90;6.43;;;;;;;27.02;48.92;100547.33;125000;1099;102270;-73
2023/06/21 09:06:10;;;;;;;12.30;7.10;;;;;;;26.96;49.13;100539.45;124885;1099;104092;-74
2023/06/21 09:08:51;;;;;;;10.57;6.40;;;;;;;26.85;49.44;100537.12;124356;1100;104341;-75
2023/06/21 09:11:25;;;;;;;10.70;6.60;;;;;;;26.79;49.11;100532.80;125054;1099;104169;-73
2023/06/21 09:13:58;;;;;;;12.27;7.00;;;;;;;26.66;49.55;100534.09;124942;1099;103331;-75
2023/06/21 09:16:40;;;;;;;11.15;6.90;;;;;;;26.57;49.86;100535.24;125005;1099;104191;-78
2023/06/21 09:19:11;;;;;;;12.75;6.37;;;;;;;26.58;49.31;100545.05;124371;1099;104185;-75
2023/06/21 09:21:51;;;;;;;10.30;7.30;;;;;;;26.59;49.46;100540.58;124981;1099;102988;-77
2023/06/21 09:24:25;;;;;;;11.20;6.77;;;;;;;26.62;49.78;100532.41;124548;1099;104319;-78
2023/06/21 09:26:58;;;;;;;9.00;6.37;;;;;;;26.61;49.37;100533.33;124896;1099;104373;-80
2023/06/21 09:29:34;;;;;;;11.03;6.33;;;;;;;26.62;49.61;100535.98;125073;1099;104216;-79
2023/06/21 09:32:11;;;;;;;9.93;6.30;;;;;;;26.62;49.14;100530.59;125780;1099;104162;-82
2023/06/21 09:34:43;;;;;;;9.87;6.13;;;;;;;26.62;49.23;100527.03;125564;1098;104669;-79
2023/06/21 09:37:35;;;;;;;9.63;6.20;;;;;;;26.59;49.62;100536.07;125280;1099;104243;-80
2023/06/21 09:40:10;;;;;;;8.07;5.70;;;;;;;26.47;48.82;100521.16;125250;1099;104687;-82
2023/06/21 09:42:46;;;;;;;10.17;6.17;;;;;;;26.48;49.45;100528.31;126970;1098;101945;-79
2023/06/21 09:45:20;;;;;;;;;;;;;;;26.59;48.83;100513.67;124700;1099;104185;-84
2023/06/21 09:47:55;;;;;;;12.90;5.80;;;;;;;26.67;48.98;100517.91;125081;1099;104179;-79
2023/06/21 09:50:33;;;;;;;13.30;6.35;;;;;;;26.75;48.87;100520.36;124956;1099;102464;-77
2023/06/21 09:53:11;;;;;;;9.03;6.00;;;;;;;26.73;48.40;100533.86;124994;1102;102061;-82
2023/06/21 09:55:47;;;;;;;8.33;5.60;;;;;;;26.82;48.82;100516.56;125355;1099;104277;-80
2023/06/21 09:58:21;;;;;;;9.80;5.80;;;;;;;27.02;48.19;100524.00;125022;1099;104258;-80
2023/06/21 10:00:53;;;;;;;9.33;5.67;;;;;;;27.18;48.17;100518.99;124934;1099;101946;-77
2023/06/21 10:03:26;;;;;;;8.57;5.63;;;;;;;27.34;47.69;100513.12;124995;1099;103206;-74
2023/06/21 10:05:59;;;;;;;12.15;5.97;;;;;;;27.45;47.85;100510.94;125042;1099;103406;-73
2023/06/21 10:08:36;;;;;;;8.27;5.97;;;;;;;27.62;47.56;100522.02;124647;1100;104245;-73
2023/06/21 10:11:07;;;;;;;10.83;6.20;;;;;;;27.76;46.82;100521.53;124930;1099;104239;-72
2023/06/21 10:13:39;;;;;;;8.67;5.77;;;;;;;27.78;46.52;100518.78;124396;1099;104220;-73
2023/06/21 10:16:12;;;;;;;8.37;5.83;;;;;;;27.94;46.97;100522.70;124979;1099;103084;-72
2023/06/21 10:18:55;;;;;;;11.50;6.00;;;;;;;28.01;46.75;100509.90;124936;1099;103334;-73
2023/06/21 10:21:29;;;;;;;8.60;5.90;;;;;;;28.12;46.68;100523.86;124884;1098;104242;-72
2023/06/21 10:24:23;;;;;;;7.50;5.70;;;;;;;28.17;46.21;100520.99;124369;1099;104261;-77
2023/06/21 10:26:57;;;;;;;10.13;5.77;;;;;;;28.13;46.08;100519.37;125000;1099;103151;-74
2023/06/21 10:29:30;;;;;;;7.43;5.60;;;;;;;28.04;45.89;100520.58;124995;1099;104155;-76
2023/06/21 10:32:05;;;;;;;8.33;5.90;;;;;;;28.15;45.63;100512.09;125198;1099;104283;-81
2023/06/21 10:38:08;;;;;;;12.20;6.20;;;;;;;27.98;45.54;100508.19;125436;1098;104309;-75
2023/06/21 10:40:44;;;;;;;8.97;6.13;;;;;;;27.79;45.33;100510.64;125313;1099;104188;-76
2023/06/21 10:43:16;;;;;;;9.90;6.20;;;;;;;27.61;45.29;100519.37;125194;1099;104367;-77
2023/06/21 10:45:57;;;;;;;10.07;6.07;;;;;;;27.53;45.14;100510.68;125215;1099;104176;-77
2023/06/21 10:48:38;;;;;;;8.73;5.53;;;;;;;27.43;44.45;100510.99;124629;1099;102453;-76
2023/06/21 10:51:15;;;;;;;7.83;5.57;;;;;;;27.41;44.51;100512.87;126721;1098;102098;-76
2023/06/21 10:53:48;;;;;;;10.30;5.93;;;;;;;27.49;44.96;100504.52;126798;1099;103414;-78
2023/06/21 10:56:28;;;;;;;8.20;5.90;;;;;;;27.72;45.01;100506.42;126166;1099;102625;-76
2023/06/21 10:59:03;;;;;;;13.23;6.10;;;;;;;27.89;44.82;100502.22;126829;1098;102907;-75
2023/06/21 11:01:34;;;;;;;9.73;5.73;;;;;;;27.83;44.20;100489.86;126851;1098;102201;-75
2023/06/21 11:04:08;;;;;;;9.10;5.77;;;;;;;27.69;44.51;100494.84;126770;1099;102108;-74
2023/06/21 11:06:45;;;;;;;7.97;5.50;;;;;;;27.54;44.01;100504.37;126280;1098;102773;-78
2023/06/21 11:09:19;;;;;;;10.03;6.00;;;;;;;27.36;44.01;100500.48;126840;1099;102773;-81
2023/06/21 11:11:56;;;;;;;12.17;5.77;;;;;;;27.30;44.60;100516.81;126828;1097;102449;-79
2023/06/21 11:14:34;;;;;;;13.07;6.30;;;;;;;27.21;44.74;100505.42;124904;1099;104300;-77
2023/06/21 11:17:14;;;;;;;11.13;6.03;;;;;;;27.08;44.72;100504.05;124310;1099;104316;-77
2023/06/21 11:19:53;;;;;;;8.80;6.10;;;;;;;27.05;45.14;100504.16;124926;1099;104205;-76
2023/06/21 11:22:26;;;;;;;11.95;6.10;;;;;;;27.06;45.43;100509.48;124820;1098;104265;-77
2023/06/21 11:25:15;;;;;;;9.20;5.80;;;;;;;27.14;45.75;100511.94;125016;1098;104235;-73
2023/06/21 11:28:33;;;;;;;12.37;6.43;;;;;;;27.19;45.21;100515.37;125043;1099;102876;-75
2023/06/21 11:31:25;;;;;;;13.70;6.77;;;;;;;27.29;45.85;100509.69;125193;1099;104341;-78
2023/06/21 11:34:09;;;;;;;12.20;6.20;;;;;;;27.34;45.62;100513.12;124952;1099;102170;-76
2023/06/21 11:36:41;;;;;;;10.90;6.30;;;;;;;27.41;45.54;100503.88;125013;1099;104480;-80